sensor_id;sensor_type;location;lat;lon;timestamp;pressure;altitude;pressure_sealevel;temperature;humidity
45253;BME280;63171;50.520;30.486;2024-03-25T00:03:49;98865.53;;;7.05;100.00
45253;BME280;63171;50.520;30.486;2024-03-25T00:04:39;98865.41;;;7.07;100.00
45253;BME280;63171;50.520;30.486;2024-03-25T00:05:29;98869.53;;;7.11;100.00
45253;BME280;63171;50.520;30.486;2024-03-25T00:06:20;98871.09;;;7.14;100.00
45253;BME280;63171;50.520;30.486;2024-03-25T00:07:10;98861.59;;;7.13;100.00
45253;BME280;63171;50.520;30.486;2024-03-25T00:08:00;98868.47;;;7.14;100.00
45253;BME280;63171;50.520;30.486;2024-03-25T00:08:50;98868.19;;;7.18;100.00
45253;BME280;63171;50.520;30.486;2024-03-25T00:09:40;98869.75;;;7.21;100.00
45253;BME280;63171;50.520;30.486;2024-03-25T00:10:30;98865.47;;;7.20;100.00
45253;BME280;63171;50.520;30.486;2024-03-25T00:11:20;98870.50;;;7.23;100.00
45253;BME280;63171;50.520;30.486;2024-03-25T00:12:10;98865.19;;;7.24;100.00
45253;BME280;63171;50.520;30.486;2024-03-25T00:13:00;98861.44;;;7.28;100.00
45253;BME280;63171;50.520;30.486;2024-03-25T00:13:49;98866.44;;;7.31;100.00
45253;BME280;63171;50.520;30.486;2024-03-25T00:14:42;98863.63;;;7.34;100.00
45253;BME280;63171;50.520;30.486;2024-03-25T00:15:31;98854.81;;;7.37;100.00
45253;BME280;63171;50.520;30.486;2024-03-25T00:16:23;98864.41;;;7.36;100.00
45253;BME280;63171;50.520;30.486;2024-03-25T00:17:13;98860.88;;;7.37;100.00
45253;BME280;63171;50.520;30.486;2024-03-25T00:18:04;98859.00;;;7.39;100.00
45253;BME280;63171;50.520;30.486;2024-03-25T00:18:54;98861.78;;;7.36;100.00
45253;BME280;63171;50.520;30.486;2024-03-25T00:19:44;98864.41;;;7.36;100.00
45253;BME280;63171;50.520;30.486;2024-03-25T00:20:39;98856.69;;;7.35;100.00
45253;BME280;63171;50.520;30.486;2024-03-25T00:21:29;98861.91;;;7.35;100.00
45253;BME280;63171;50.520;30.486;2024-03-25T00:22:20;98857.53;;;7.35;100.00
45253;BME280;63171;50.520;30.486;2024-03-25T00:23:10;98861.78;;;7.36;100.00
45253;BME280;63171;50.520;30.486;2024-03-25T00:24:01;98861.78;;;7.36;100.00
45253;BME280;63171;50.520;30.486;2024-03-25T00:24:52;98857.53;;;7.35;100.00
45253;BME280;63171;50.520;30.486;2024-03-25T00:25:43;98854.09;;;7.35;100.00
45253;BME280;63171;50.520;30.486;2024-03-25T00:26:32;98851.03;;;7.28;100.00
45253;BME280;63171;50.520;30.486;2024-03-25T00:27:22;98845.94;;;7.27;100.00
45253;BME280;63171;50.520;30.486;2024-03-25T00:28:12;98848.44;;;7.28;100.00
45253;BME280;63171;50.520;30.486;2024-03-25T00:29:02;98848.63;;;7.25;100.00
45253;BME280;63171;50.520;30.486;2024-03-25T00:29:54;98845.94;;;7.27;100.00
45253;BME280;63171;50.520;30.486;2024-03-25T00:30:44;98843.31;;;7.27;100.00
45253;BME280;63171;50.520;30.486;2024-03-25T00:31:33;98849.25;;;7.29;100.00
45253;BME280;63171;50.520;30.486;2024-03-25T00:32:23;98848.63;;;7.25;100.00
45253;BME280;63171;50.520;30.486;2024-03-25T00:33:13;98848.84;;;7.22;100.00
45253;BME280;63171;50.520;30.486;2024-03-25T00:34:06;98846.22;;;7.22;100.00
45253;BME280;63171;50.520;30.486;2024-03-25T00:34:56;98836.41;;;7.13;100.00
45253;BME280;63171;50.520;30.486;2024-03-25T00:35:46;98845.34;;;7.09;100.00
45253;BME280;63171;50.520;30.486;2024-03-25T00:36:36;98843.69;;;7.08;100.00
45253;BME280;63171;50.520;30.486;2024-03-25T00:37:26;98848.13;;;7.06;100.00
45253;BME280;63171;50.520;30.486;2024-03-25T00:38:16;98845.53;;;7.06;100.00
45253;BME280;63171;50.520;30.486;2024-03-25T00:39:06;98838.66;;;7.05;100.00
45253;BME280;63171;50.520;30.486;2024-03-25T00:39:57;98840.00;;;6.98;100.00
45253;BME280;63171;50.520;30.486;2024-03-25T00:40:46;98832.88;;;6.87;100.00
45253;BME280;63171;50.520;30.486;2024-03-25T00:41:37;98836.84;;;6.93;100.00
45253;BME280;63171;50.520;30.486;2024-03-25T00:42:26;98834.22;;;6.93;100.00
45253;BME280;63171;50.520;30.486;2024-03-25T00:43:16;98831.81;;;6.90;100.00
45253;BME280;63171;50.520;30.486;2024-03-25T00:44:06;98840.06;;;6.69;100.00
45253;BME280;63171;50.520;30.486;2024-03-25T00:44:57;98837.50;;;6.41;100.00
45253;BME280;63171;50.520;30.486;2024-03-25T00:45:48;98834.06;;;6.26;100.00
45253;BME280;63171;50.520;30.486;2024-03-25T00:46:37;98838.09;;;6.17;100.00
45253;BME280;63171;50.520;30.486;2024-03-25T00:47:27;98838.63;;;6.08;100.00
45253;BME280;63171;50.520;30.486;2024-03-25T00:48:17;98838.25;;;6.00;100.00
45253;BME280;63171;50.520;30.486;2024-03-25T00:49:08;98837.88;;;6.06;100.00
45253;BME280;63171;50.520;30.486;2024-03-25T00:49:58;98832.69;;;6.20;100.00
45253;BME280;63171;50.520;30.486;2024-03-25T00:50:48;98835.47;;;6.32;100.00
45253;BME280;63171;50.520;30.486;2024-03-25T00:51:38;98840.38;;;6.36;100.00
45253;BME280;63171;50.520;30.486;2024-03-25T00:52:28;98837.22;;;6.45;100.00
45253;BME280;63171;50.520;30.486;2024-03-25T00:53:18;98839.44;;;6.51;100.00
45253;BME280;63171;50.520;30.486;2024-03-25T00:54:08;98834.91;;;6.55;100.00
45253;BME280;63171;50.520;30.486;2024-03-25T00:54:58;98841.78;;;6.56;100.00
45253;BME280;63171;50.520;30.486;2024-03-25T00:55:48;98839.28;;;6.55;100.00
45253;BME280;63171;50.520;30.486;2024-03-25T00:56:38;98837.41;;;6.57;100.00
45253;BME280;63171;50.520;30.486;2024-03-25T00:57:28;98836.72;;;6.53;100.00
45253;BME280;63171;50.520;30.486;2024-03-25T00:58:19;98834.91;;;6.55;100.00
45253;BME280;63171;50.520;30.486;2024-03-25T00:59:09;98846.03;;;6.57;100.00
45253;BME280;63171;50.520;30.486;2024-03-25T01:00:00;98841.94;;;6.53;100.00
45253;BME280;63171;50.520;30.486;2024-03-25T01:00:53;98839.28;;;6.55;100.00
45253;BME280;63171;50.520;30.486;2024-03-25T01:01:43;98847.97;;;6.53;100.00
45253;BME280;63171;50.520;30.486;2024-03-25T01:02:33;98841.88;;;6.55;100.00
45253;BME280;63171;50.520;30.486;2024-03-25T01:03:22;98841.59;;;6.45;100.00
45253;BME280;63171;50.520;30.486;2024-03-25T01:04:13;98847.63;;;6.45;100.00
45253;BME280;63171;50.520;30.486;2024-03-25T01:05:04;98850.31;;;6.44;100.00
45253;BME280;63171;50.520;30.486;2024-03-25T01:05:54;98842.16;;;6.36;100.00
45253;BME280;63171;50.520;30.486;2024-03-25T01:06:44;98844.47;;;6.40;100.00
45253;BME280;63171;50.520;30.486;2024-03-25T01:07:34;98836.28;;;6.46;100.00
45253;BME280;63171;50.520;30.486;2024-03-25T01:08:24;98837.13;;;6.47;100.00
45253;BME280;63171;50.520;30.486;2024-03-25T01:09:14;98840.28;;;6.52;100.00
45253;BME280;63171;50.520;30.486;2024-03-25T01:10:06;98837.41;;;6.57;100.00
45253;BME280;63171;50.520;30.486;2024-03-25T01:10:57;98833.59;;;6.48;100.00
45253;BME280;63171;50.520;30.486;2024-03-25T01:11:47;98823.66;;;6.40;100.00
45253;BME280;63171;50.520;30.486;2024-03-25T01:12:37;98824.31;;;6.44;100.00
45253;BME280;63171;50.520;30.486;2024-03-25T01:13:27;98827.56;;;6.47;100.00
45253;BME280;63171;50.520;30.486;2024-03-25T01:14:17;98825.69;;;6.49;100.00
45253;BME280;63171;50.520;30.486;2024-03-25T01:15:08;98823.00;;;6.51;100.00
45253;BME280;63171;50.520;30.486;2024-03-25T01:15:59;98822.16;;;6.50;100.00
45253;BME280;63171;50.520;30.486;2024-03-25T01:16:49;98816.97;;;6.50;100.00
45253;BME280;63171;50.520;30.486;2024-03-25T01:17:40;98814.47;;;6.49;100.00
45253;BME280;63171;50.520;30.486;2024-03-25T01:18:30;98817.25;;;6.46;100.00
45253;BME280;63171;50.520;30.486;2024-03-25T01:19:19;98815.50;;;6.46;100.00
45253;BME280;63171;50.520;30.486;2024-03-25T01:20:11;98815.94;;;6.39;100.00
45253;BME280;63171;50.520;30.486;2024-03-25T01:21:02;98818.38;;;6.42;100.00
45253;BME280;63171;50.520;30.486;2024-03-25T01:21:53;98814.09;;;6.41;100.00
45253;BME280;63171;50.520;30.486;2024-03-25T01:22:43;98811.97;;;6.33;100.00
45253;BME280;63171;50.520;30.486;2024-03-25T01:23:33;98814.66;;;6.32;100.00
45253;BME280;63171;50.520;30.486;2024-03-25T01:24:23;98817.81;;;6.37;100.00
45253;BME280;63171;50.520;30.486;2024-03-25T01:25:13;98816.88;;;6.38;100.00
45253;BME280;63171;50.520;30.486;2024-03-25T01:26:04;98820.22;;;6.40;100.00
45253;BME280;63171;50.520;30.486;2024-03-25T01:26:53;98821.81;;;6.42;100.00
45253;BME280;63171;50.520;30.486;2024-03-25T01:27:43;98819.03;;;6.45;100.00
45253;BME280;63171;50.520;30.486;2024-03-25T01:28:34;98819.13;;;6.44;100.00
45253;BME280;63171;50.520;30.486;2024-03-25T01:29:23;98820.78;;;6.45;100.00
45253;BME280;63171;50.520;30.486;2024-03-25T01:30:14;98817.72;;;6.38;100.00
45253;BME280;63171;50.520;30.486;2024-03-25T01:31:04;98817.91;;;6.35;100.00
45253;BME280;63171;50.520;30.486;2024-03-25T01:31:55;98818.44;;;6.40;100.00
45253;BME280;63171;50.520;30.486;2024-03-25T01:32:46;98815.84;;;6.40;100.00
45253;BME280;63171;50.520;30.486;2024-03-25T01:33:37;98818.44;;;6.40;100.00
45253;BME280;63171;50.520;30.486;2024-03-25T01:34:27;98808.06;;;6.40;100.00
45253;BME280;63171;50.520;30.486;2024-03-25T01:35:18;98810.47;;;6.43;100.00
45253;BME280;63171;50.520;30.486;2024-03-25T01:36:07;98811.22;;;6.45;100.00
45253;BME280;63171;50.520;30.486;2024-03-25T01:36:57;98806.13;;;6.44;100.00
45253;BME280;63171;50.520;30.486;2024-03-25T01:37:48;98805.19;;;6.45;100.00
45253;BME280;63171;50.520;30.486;2024-03-25T01:38:39;98806.75;;;6.47;100.00
45253;BME280;63171;50.520;30.486;2024-03-25T01:39:29;98790.31;;;6.47;100.00
45253;BME280;63171;50.520;30.486;2024-03-25T01:40:19;98801.56;;;6.47;100.00
45253;BME280;63171;50.520;30.486;2024-03-25T01:41:09;98799.97;;;6.45;100.00
45253;BME280;63171;50.520;30.486;2024-03-25T01:41:58;98794.16;;;6.41;100.00
45253;BME280;63171;50.520;30.486;2024-03-25T01:42:55;98794.97;;;6.42;100.00
45253;BME280;63171;50.520;30.486;2024-03-25T01:43:45;98800.25;;;6.40;100.00
45253;BME280;63171;50.520;30.486;2024-03-25T01:56:49;98815.28;;;6.91;100.00
45253;BME280;63171;50.520;30.486;2024-03-25T01:57:42;98813.91;;;6.85;100.00
45253;BME280;63171;50.520;30.486;2024-03-25T01:58:32;98818.56;;;6.80;100.00
45253;BME280;63171;50.520;30.486;2024-03-25T01:59:23;98816.16;;;6.77;100.00
45253;BME280;63171;50.520;30.486;2024-03-25T02:00:13;98819.38;;;6.80;100.00
45253;BME280;63171;50.520;30.486;2024-03-25T02:01:13;98813.84;;;6.72;100.00
45253;BME280;63171;50.520;30.486;2024-03-25T02:02:04;98819.16;;;6.71;100.00
45253;BME280;63171;50.520;30.486;2024-03-25T02:02:55;98820.94;;;6.70;100.00
45253;BME280;63171;50.520;30.486;2024-03-25T02:03:46;98821.88;;;6.69;100.00
45253;BME280;63171;50.520;30.486;2024-03-25T02:04:36;98822.44;;;6.60;100.00
45253;BME280;63171;50.520;30.486;2024-03-25T02:05:27;98824.19;;;6.60;100.00
45253;BME280;63171;50.520;30.486;2024-03-25T02:06:17;98816.41;;;6.60;100.00
45253;BME280;63171;50.520;30.486;2024-03-25T02:07:08;98828.56;;;6.59;100.00
45253;BME280;63171;50.520;30.486;2024-03-25T02:07:57;98827.94;;;6.56;100.00
45253;BME280;63171;50.520;30.486;2024-03-25T02:08:48;98820.88;;;6.58;100.00
45253;BME280;63171;50.520;30.486;2024-03-25T02:09:38;98826.31;;;6.53;100.00
45253;BME280;63171;50.520;30.486;2024-03-25T02:10:29;98821.13;;;6.53;100.00
45253;BME280;63171;50.520;30.486;2024-03-25T02:11:19;98817.88;;;6.49;100.00
45253;BME280;63171;50.520;30.486;2024-03-25T02:12:11;98816.13;;;6.50;100.00
45253;BME280;63171;50.520;30.486;2024-03-25T02:13:01;98821.22;;;6.51;100.00
45253;BME280;63171;50.520;30.486;2024-03-25T02:13:51;98829.69;;;6.55;100.00
45253;BME280;63171;50.520;30.486;2024-03-25T02:14:41;98821.78;;;6.57;100.00
45253;BME280;63171;50.520;30.486;2024-03-25T02:15:32;98824.66;;;6.52;100.00
45253;BME280;63171;50.520;30.486;2024-03-25T02:16:23;98828.00;;;6.54;100.00
45253;BME280;63171;50.520;30.486;2024-03-25T02:17:13;98824.56;;;6.53;100.00
45253;BME280;63171;50.520;30.486;2024-03-25T02:18:03;98823.56;;;6.56;100.00
45253;BME280;63171;50.520;30.486;2024-03-25T02:18:54;98815.00;;;6.54;100.00
45253;BME280;63171;50.520;30.486;2024-03-25T02:19:44;98829.69;;;6.55;100.00
45253;BME280;63171;50.520;30.486;2024-03-25T02:20:34;98823.66;;;6.55;100.00
45253;BME280;63171;50.520;30.486;2024-03-25T02:21:24;98830.69;;;6.52;100.00
45253;BME280;63171;50.520;30.486;2024-03-25T02:22:14;98829.03;;;6.51;100.00
45253;BME280;63171;50.520;30.486;2024-03-25T02:23:04;98830.91;;;6.49;100.00
45253;BME280;63171;50.520;30.486;2024-03-25T02:23:56;98824.22;;;6.45;100.00
45253;BME280;63171;50.520;30.486;2024-03-25T02:24:50;98828.13;;;6.38;100.00
45253;BME280;63171;50.520;30.486;2024-03-25T02:25:42;98826.19;;;6.42;100.00
45253;BME280;63171;50.520;30.486;2024-03-25T02:26:34;98823.84;;;6.37;100.00
45253;BME280;63171;50.520;30.486;2024-03-25T02:27:24;98820.22;;;6.40;100.00
45253;BME280;63171;50.520;30.486;2024-03-25T02:28:14;98818.66;;;6.37;100.00
45253;BME280;63171;50.520;30.486;2024-03-25T02:29:04;98811.88;;;6.35;100.00
45253;BME280;63171;50.520;30.486;2024-03-25T02:29:53;98816.88;;;6.38;100.00
45253;BME280;63171;50.520;30.486;2024-03-25T02:30:44;98813.25;;;6.40;100.00
45253;BME280;63171;50.520;30.486;2024-03-25T02:31:34;98811.69;;;6.38;100.00
45253;BME280;63171;50.520;30.486;2024-03-25T02:32:24;98807.72;;;6.32;100.00
45253;BME280;63171;50.520;30.486;2024-03-25T02:33:14;98816.16;;;6.36;100.00
45253;BME280;63171;50.520;30.486;2024-03-25T02:34:05;98821.06;;;6.40;100.00
45253;BME280;63171;50.520;30.486;2024-03-25T02:34:56;98820.16;;;6.41;100.00
45253;BME280;63171;50.520;30.486;2024-03-25T02:35:46;98833.88;;;6.43;100.00
45253;BME280;63171;50.520;30.486;2024-03-25T02:36:35;98833.78;;;6.45;100.00
45253;BME280;63171;50.520;30.486;2024-03-25T02:37:27;98828.38;;;6.48;100.00
45253;BME280;63171;50.520;30.486;2024-03-25T02:38:17;98838.91;;;6.46;100.00
45253;BME280;63171;50.520;30.486;2024-03-25T02:39:08;98831.81;;;6.48;100.00
45253;BME280;63171;50.520;30.486;2024-03-25T02:40:00;98837.97;;;6.47;100.00
45253;BME280;63171;50.520;30.486;2024-03-25T02:40:51;98841.28;;;6.49;100.00
45253;BME280;63171;50.520;30.486;2024-03-25T02:41:42;98835.16;;;6.50;100.00
45253;BME280;63171;50.520;30.486;2024-03-25T02:42:32;98839.53;;;6.50;100.00
45253;BME280;63171;50.520;30.486;2024-03-25T02:43:22;98837.13;;;6.47;100.00
45253;BME280;63171;50.520;30.486;2024-03-25T02:44:12;98834.63;;;6.45;100.00
45253;BME280;63171;50.520;30.486;2024-03-25T02:45:03;98839.34;;;6.39;100.00
45253;BME280;63171;50.520;30.486;2024-03-25T02:45:54;98841.31;;;6.35;100.00
45253;BME280;63171;50.520;30.486;2024-03-25T02:46:44;98836.84;;;6.23;100.00
45253;BME280;63171;50.520;30.486;2024-03-25T02:47:34;98838.09;;;6.17;100.00
45253;BME280;63171;50.520;30.486;2024-03-25T02:48:24;98840.50;;;6.20;100.00
45253;BME280;63171;50.520;30.486;2024-03-25T02:49:14;98839.56;;;6.21;100.00
45253;BME280;63171;50.520;30.486;2024-03-25T02:50:05;98853.38;;;6.22;100.00
45253;BME280;63171;50.520;30.486;2024-03-25T02:50:55;98857.22;;;6.16;100.00
45253;BME280;63171;50.520;30.486;2024-03-25T02:51:44;98853.00;;;6.14;100.00
45253;BME280;63171;50.520;30.486;2024-03-25T02:52:35;98859.22;;;6.11;100.00
45253;BME280;63171;50.520;30.486;2024-03-25T02:53:25;98862.03;;;6.08;100.00
45253;BME280;63171;50.520;30.486;2024-03-25T02:54:15;98862.66;;;6.12;100.00
45253;BME280;63171;50.520;30.486;2024-03-25T02:55:05;98866.00;;;6.14;100.00
45253;BME280;63171;50.520;30.486;2024-03-25T02:55:56;98859.97;;;6.13;100.00
45253;BME280;63171;50.520;30.486;2024-03-25T02:56:47;98859.72;;;6.04;100.00
45253;BME280;63171;50.520;30.486;2024-03-25T02:57:37;98856.09;;;6.06;100.00
45253;BME280;63171;50.520;30.486;2024-03-25T02:58:27;98857.09;;;6.04;100.00
45253;BME280;63171;50.520;30.486;2024-03-25T02:59:17;98864.91;;;6.04;100.00
45253;BME280;63171;50.520;30.486;2024-03-25T03:00:08;98859.22;;;5.97;100.00
45253;BME280;63171;50.520;30.486;2024-03-25T03:00:58;98862.41;;;6.02;100.00
45253;BME280;63171;50.520;30.486;2024-03-25T03:01:48;98860.97;;;5.97;100.00
45253;BME280;63171;50.520;30.486;2024-03-25T03:02:38;98861.41;;;5.89;100.00
45253;BME280;63171;50.520;30.486;2024-03-25T03:03:28;98858.38;;;5.97;100.00
45253;BME280;63171;50.520;30.486;2024-03-25T03:04:18;98865.84;;;6.03;100.00
45253;BME280;63171;50.520;30.486;2024-03-25T03:05:08;98862.47;;;6.01;100.00
45253;BME280;63171;50.520;30.486;2024-03-25T03:05:58;98874.16;;;5.93;100.00
45253;BME280;63171;50.520;30.486;2024-03-25T03:06:48;98872.94;;;5.99;100.00
45253;BME280;63171;50.520;30.486;2024-03-25T03:07:37;98873.63;;;6.03;100.00
45253;BME280;63171;50.520;30.486;2024-03-25T03:08:28;98870.00;;;6.05;100.00
45253;BME280;63171;50.520;30.486;2024-03-25T03:09:18;98873.44;;;6.06;100.00
45253;BME280;63171;50.520;30.486;2024-03-25T03:10:09;98879.56;;;6.05;100.00
45253;BME280;63171;50.520;30.486;2024-03-25T03:10:58;98874.28;;;6.06;100.00
45253;BME280;63171;50.520;30.486;2024-03-25T03:11:49;98874.19;;;6.08;100.00
45253;BME280;63171;50.520;30.486;2024-03-25T03:12:40;98878.53;;;6.07;100.00
45253;BME280;63171;50.520;30.486;2024-03-25T03:13:30;98876.88;;;6.06;100.00
45253;BME280;63171;50.520;30.486;2024-03-25T03:14:20;98877.34;;;6.13;100.00
45253;BME280;63171;50.520;30.486;2024-03-25T03:15:10;98887.38;;;6.19;100.00
45253;BME280;63171;50.520;30.486;2024-03-25T03:16:00;98888.41;;;6.16;100.00
45253;BME280;63171;50.520;30.486;2024-03-25T03:16:51;98890.41;;;6.11;100.00
45253;BME280;63171;50.520;30.486;2024-03-25T03:17:43;98897.88;;;6.17;100.00
45253;BME280;63171;50.520;30.486;2024-03-25T03:18:33;98894.25;;;6.20;100.00
45253;BME280;63171;50.520;30.486;2024-03-25T03:19:24;98906.31;;;6.21;100.00
45253;BME280;63171;50.520;30.486;2024-03-25T03:20:16;98909.00;;;6.19;100.00
45253;BME280;63171;50.520;30.486;2024-03-25T03:21:06;98907.44;;;6.17;100.00
45253;BME280;63171;50.520;30.486;2024-03-25T03:21:55;98902.41;;;6.14;100.00
45253;BME280;63171;50.520;30.486;2024-03-25T03:22:45;98903.16;;;6.16;100.00
45253;BME280;63171;50.520;30.486;2024-03-25T03:23:36;98904.66;;;6.20;100.00
45253;BME280;63171;50.520;30.486;2024-03-25T03:24:26;98902.78;;;6.22;100.00
45253;BME280;63171;50.520;30.486;2024-03-25T03:25:16;98902.03;;;6.20;100.00
45253;BME280;63171;50.520;30.486;2024-03-25T03:26:05;98895.09;;;6.20;100.00
45253;BME280;63171;50.520;30.486;2024-03-25T03:26:57;98895.72;;;6.24;100.00
45253;BME280;63171;50.520;30.486;2024-03-25T03:27:47;98894.69;;;6.27;100.00
45253;BME280;63171;50.520;30.486;2024-03-25T03:28:37;98887.00;;;6.25;100.00
45253;BME280;63171;50.520;30.486;2024-03-25T03:29:27;98879.19;;;6.25;100.00
45253;BME280;63171;50.520;30.486;2024-03-25T03:30:17;98872.72;;;6.18;100.00
45253;BME280;63171;50.520;30.486;2024-03-25T03:31:07;98867.41;;;6.19;100.00
45253;BME280;63171;50.520;30.486;2024-03-25T03:31:57;98871.69;;;6.20;100.00
45253;BME280;63171;50.520;30.486;2024-03-25T03:32:47;98871.59;;;6.22;100.00
45253;BME280;63171;50.520;30.486;2024-03-25T03:33:37;98874.47;;;6.17;100.00
45253;BME280;63171;50.520;30.486;2024-03-25T03:34:27;98877.25;;;6.14;100.00
45253;BME280;63171;50.520;30.486;2024-03-25T03:35:17;98878.00;;;6.16;100.00
45253;BME280;63171;50.520;30.486;2024-03-25T03:36:07;98876.34;;;6.15;100.00
45253;BME280;63171;50.520;30.486;2024-03-25T03:36:57;98871.97;;;6.16;100.00
45253;BME280;63171;50.520;30.486;2024-03-25T03:37:47;98868.53;;;6.15;100.00
45253;BME280;63171;50.520;30.486;2024-03-25T03:38:37;98870.13;;;6.18;100.00
45253;BME280;63171;50.520;30.486;2024-03-25T03:39:27;98873.72;;;6.15;100.00
45253;BME280;63171;50.520;30.486;2024-03-25T03:40:17;98871.19;;;6.14;100.00
45253;BME280;63171;50.520;30.486;2024-03-25T03:41:07;98865.25;;;6.12;100.00
45253;BME280;63171;50.520;30.486;2024-03-25T03:41:58;98868.53;;;6.15;100.00
45253;BME280;63171;50.520;30.486;2024-03-25T03:42:49;98871.03;;;6.17;100.00
45253;BME280;63171;50.520;30.486;2024-03-25T03:43:38;98873.53;;;6.18;100.00
45253;BME280;63171;50.520;30.486;2024-03-25T03:44:28;98871.78;;;6.19;100.00
45253;BME280;63171;50.520;30.486;2024-03-25T03:45:18;98870.00;;;6.19;100.00
45253;BME280;63171;50.520;30.486;2024-03-25T03:46:08;98870.13;;;6.18;100.00
45253;BME280;63171;50.520;30.486;2024-03-25T03:46:59;98872.06;;;6.14;100.00
45253;BME280;63171;50.520;30.486;2024-03-25T03:47:48;98875.66;;;6.12;100.00
45253;BME280;63171;50.520;30.486;2024-03-25T03:48:39;98879.09;;;6.12;100.00
45253;BME280;63171;50.520;30.486;2024-03-25T03:49:28;98878.72;;;6.04;100.00
45253;BME280;63171;50.520;30.486;2024-03-25T03:50:18;98875.41;;;6.02;100.00
45253;BME280;63171;50.520;30.486;2024-03-25T03:51:09;98878.94;;;6.01;100.00
45253;BME280;63171;50.520;30.486;2024-03-25T03:51:59;98880.00;;;5.97;100.00
45253;BME280;63171;50.520;30.486;2024-03-25T03:52:48;98879.91;;;5.99;100.00
45253;BME280;63171;50.520;30.486;2024-03-25T03:53:39;98887.56;;;6.02;100.00
45253;BME280;63171;50.520;30.486;2024-03-25T03:54:29;98885.03;;;6.00;100.00
45253;BME280;63171;50.520;30.486;2024-03-25T03:55:20;98886.72;;;6.01;100.00
45253;BME280;63171;50.520;30.486;2024-03-25T03:56:09;98889.56;;;5.97;100.00
45253;BME280;63171;50.520;30.486;2024-03-25T03:57:00;98896.53;;;5.96;100.00
45253;BME280;63171;50.520;30.486;2024-03-25T03:57:50;98893.09;;;5.96;100.00
45253;BME280;63171;50.520;30.486;2024-03-25T03:58:40;98896.53;;;5.96;100.00
45253;BME280;63171;50.520;30.486;2024-03-25T03:59:31;98891.16;;;5.99;100.00
45253;BME280;63171;50.520;30.486;2024-03-25T04:00:21;98900.47;;;6.03;100.00
45253;BME280;63171;50.520;30.486;2024-03-25T04:01:14;98898.00;;;6.00;100.00
45253;BME280;63171;50.520;30.486;2024-03-25T04:02:05;98893.00;;;5.97;100.00
45253;BME280;63171;50.520;30.486;2024-03-25T04:02:56;98885.84;;;6.01;100.00
45253;BME280;63171;50.520;30.486;2024-03-25T04:03:45;98896.94;;;6.04;100.00
45253;BME280;63171;50.520;30.486;2024-03-25T04:04:35;98891.53;;;6.07;100.00
45253;BME280;63171;50.520;30.486;2024-03-25T04:05:28;98895.06;;;6.06;100.00
45253;BME280;63171;50.520;30.486;2024-03-25T04:06:17;98889.69;;;6.09;100.00
45253;BME280;63171;50.520;30.486;2024-03-25T04:07:08;98892.09;;;6.12;100.00
45253;BME280;63171;50.520;30.486;2024-03-25T04:07:58;98890.16;;;6.16;100.00
45253;BME280;63171;50.520;30.486;2024-03-25T04:08:48;98884.28;;;6.12;100.00
45253;BME280;63171;50.520;30.486;2024-03-25T04:09:38;98885.81;;;6.16;100.00
45253;BME280;63171;50.520;30.486;2024-03-25T04:10:28;98882.28;;;6.17;100.00
45253;BME280;63171;50.520;30.486;2024-03-25T04:11:18;98883.75;;;6.21;100.00
45253;BME280;63171;50.520;30.486;2024-03-25T04:12:10;98884.41;;;6.25;100.00
45253;BME280;63171;50.520;30.486;2024-03-25T04:13:00;98891.16;;;6.28;100.00
45253;BME280;63171;50.520;30.486;2024-03-25T04:13:50;98885.06;;;6.29;100.00
45253;BME280;63171;50.520;30.486;2024-03-25T04:14:40;98887.66;;;6.29;100.00
45253;BME280;63171;50.520;30.486;2024-03-25T04:15:32;98887.47;;;6.32;100.00
45253;BME280;63171;50.520;30.486;2024-03-25T04:16:22;98880.50;;;6.32;100.00
45253;BME280;63171;50.520;30.486;2024-03-25T04:17:12;98880.41;;;6.34;100.00
45253;BME280;63171;50.520;30.486;2024-03-25T04:18:03;98881.25;;;6.34;100.00
45253;BME280;63171;50.520;30.486;2024-03-25T04:18:53;98883.00;;;6.34;100.00
45253;BME280;63171;50.520;30.486;2024-03-25T04:19:43;98889.06;;;6.34;100.00
45253;BME280;63171;50.520;30.486;2024-03-25T04:20:36;98892.50;;;6.35;100.00
45253;BME280;63171;50.520;30.486;2024-03-25T04:21:27;98882.19;;;6.33;100.00
45253;BME280;63171;50.520;30.486;2024-03-25T04:22:16;98884.69;;;6.35;100.00
45253;BME280;63171;50.520;30.486;2024-03-25T04:23:06;98881.25;;;6.34;100.00
45253;BME280;63171;50.520;30.486;2024-03-25T04:23:56;98888.22;;;6.34;100.00
45253;BME280;63171;50.520;30.486;2024-03-25T04:24:47;98889.97;;;6.33;100.00
45253;BME280;63171;50.520;30.486;2024-03-25T04:25:37;98885.91;;;6.29;100.00
45253;BME280;63171;50.520;30.486;2024-03-25T04:26:27;98886.84;;;6.28;100.00
45253;BME280;63171;50.520;30.486;2024-03-25T04:27:18;98887.56;;;6.30;100.00
45253;BME280;63171;50.520;30.486;2024-03-25T04:28:10;98879.78;;;6.30;100.00
45253;BME280;63171;50.520;30.486;2024-03-25T04:28:59;98872.97;;;6.28;100.00
45253;BME280;63171;50.520;30.486;2024-03-25T04:29:50;98880.97;;;6.25;100.00
45253;BME280;63171;50.520;30.486;2024-03-25T04:30:40;98881.88;;;6.23;100.00
45253;BME280;63171;50.520;30.486;2024-03-25T04:31:30;98878.56;;;6.21;100.00
45253;BME280;63171;50.520;30.486;2024-03-25T04:32:19;98873.34;;;6.21;100.00
45253;BME280;63171;50.520;30.486;2024-03-25T04:33:10;98874.28;;;6.20;100.00
45253;BME280;63171;50.520;30.486;2024-03-25T04:34:00;98870.13;;;6.18;100.00
45253;BME280;63171;50.520;30.486;2024-03-25T04:34:50;98870.22;;;6.16;100.00
45253;BME280;63171;50.520;30.486;2024-03-25T04:35:40;98871.03;;;6.17;100.00
45253;BME280;63171;50.520;30.486;2024-03-25T04:36:32;98873.53;;;6.18;100.00
45253;BME280;63171;50.520;30.486;2024-03-25T04:37:21;98874.56;;;6.16;100.00
45253;BME280;63171;50.520;30.486;2024-03-25T04:38:11;98864.34;;;6.13;100.00
45253;BME280;63171;50.520;30.486;2024-03-25T04:39:01;98865.25;;;6.12;100.00